Currently 61°F in Moreno Valley, California, USA
61°F
74°F / 45°F
calm
0.00"
Monday, January 27, 2020 7:41 PM PST

Moreno Valley, California Weather Summary
Last 36 Hours

Temperature Winds Hourly Humidity Dewpoint
Time Report Norm Report Norm Max Gusts Precip. Rpt. Norm Rpt. Norm Pressure
1Mon 07:41 PM  60.9°F  55°F  calm  2 mph  9 mph  0.00"  49%  59%  41°F  40°F  30.20"
Mon 07:00 PM  61.4°F  56°F  1 mph NW  2 mph  6 mph  0.00"  48%  57%  41°F  40°F  30.20"
Mon 06:00 PM  62.5°F  57°F  calm  2 mph  8 mph  0.00"  47%  54%  41°F  40°F  30.18"
Mon 05:00 PM  66.8°F  61°F  3 mph NW  3 mph  13 mph  0.00"  43%  48%  42°F  41°F  30.17"
Mon 04:00 PM  73.0°F  65°F  1 mph W  5 mph  10 mph  0.00"  35%  42%  43°F  40°F  30.16"
Mon 03:00 PM  72.9°F  66°F  3 mph SW  4 mph  9 mph  0.00"  38%  40%  45°F  40°F  30.16"
2Mon 02:42 PM  73.8°F  66°F  calm  4 mph  7 mph  ----  35%  40%  44°F  40°F  30.17"
Mon 02:00 PM  72.9°F  66°F  calm  4 mph  10 mph  0.00"  38%  40%  45°F  40°F  30.17"
Mon 01:00 PM  70.8°F  65°F  1 mph E  4 mph  9 mph  0.00"  44%  42%  47°F  41°F  30.19"
Mon 12:00 PM  68.6°F  64°F  4 mph NW  4 mph  12 mph  0.00"  49%  43%  48°F  41°F  30.21"
Mon 11:00 AM  64.6°F  62°F  2 mph SE  3 mph  12 mph  0.00"  56%  47%  48°F  41°F  30.23"
Mon 10:00 AM  62.8°F  60°F  4 mph SW  3 mph  9 mph  0.00"  63%  52%  49°F  42°F  30.22"
Mon 09:00 AM  55.9°F  57°F  6 mph E  2 mph  11 mph  0.00"  89%  57%  53°F  41°F  30.21"
Mon 08:00 AM  48.0°F  53°F  3 mph S  1 mph  5 mph  0.00"  100%  63%  48°F  40°F  30.20"
Mon 07:00 AM  45.0°F  49°F  1 mph NE  1 mph  7 mph  0.00"  100%  65%  45°F  38°F  30.18"
Mon 06:00 AM  45.1°F  49°F  calm  1 mph  3 mph  0.00"  100%  65%  45°F  38°F  30.17"
Mon 05:00 AM  46.2°F  50°F  calm  1 mph  12 mph  0.00"  100%  65%  46°F  38°F  30.16"
3Mon 04:13 AM  44.6°F  50°F  calm  2 mph  none  ----  99%  65%  44°F  38°F  30.16"
Mon 04:00 AM  45.1°F  50°F  calm  2 mph  4 mph  0.00"  99%  65%  45°F  38°F  30.15"
Mon 03:00 AM  48.3°F  50°F  3 mph S  1 mph  5 mph  0.00"  98%  65%  48°F  38°F  30.16"
Mon 02:00 AM  48.8°F  50°F  calm  1 mph  3 mph  0.00"  98%  65%  48°F  39°F  30.16"
Mon 01:00 AM  49.3°F  51°F  calm  1 mph  7 mph  0.00"  98%  65%  49°F  39°F  30.16"
Mon 12:00 AM  49.7°F  51°F  3 mph SE  2 mph  6 mph  0.00"  98%  65%  49°F  39°F  30.16"
Sun 11:00 PM  47.5°F  52°F  calm  1 mph  2 mph  0.00"  97%  65%  47°F  40°F  30.16"
Sun 10:00 PM  49.8°F  52°F  calm  1 mph  7 mph  0.00"  97%  64%  49°F  40°F  30.14"
Sun 09:00 PM  51.2°F  53°F  calm  2 mph  2 mph  0.00"  96%  62%  50°F  40°F  30.14"
Sun 08:00 PM  50.1°F  55°F  calm  2 mph  6 mph  0.00"  96%  60%  49°F  40°F  30.14"
Sun 07:00 PM  50.6°F  56°F  2 mph N  2 mph  3 mph  0.00"  95%  57%  49°F  40°F  30.13"
Sun 06:00 PM  52.2°F  57°F  1 mph SE  2 mph  14 mph  0.00"  93%  55%  50°F  40°F  30.11"
Sun 05:00 PM  55.9°F  61°F  7 mph NW  3 mph  14 mph  0.00"  89%  48%  52°F  41°F  30.09"
Sun 04:00 PM  58.3°F  64°F  6 mph NW  4 mph  15 mph  0.00"  85%  43%  54°F  41°F  30.08"
Sun 03:00 PM  64.9°F  66°F  3 mph SW  4 mph  10 mph  0.00"  75%  41%  56°F  40°F  30.07"
Sun 02:00 PM  65.4°F  66°F  4 mph SW  4 mph  9 mph  0.00"  73%  41%  56°F  41°F  30.09"
Sun 01:00 PM  65.2°F  65°F  2 mph S  4 mph  7 mph  0.00"  71%  42%  55°F  41°F  30.11"
Sun 12:00 PM  62.1°F  64°F  3 mph SW  4 mph  8 mph  0.00"  77%  44%  55°F  41°F  30.13"
Sun 11:00 AM  60.0°F  62°F  3 mph SW  3 mph  6 mph  0.00"  81%  47%  54°F  41°F  30.16"
Sun 10:00 AM  57.6°F  60°F  calm  3 mph  3 mph  0.00"  84%  52%  53°F  42°F  30.17"
Sun 09:00 AM  53.7°F  57°F  2 mph W  2 mph  4 mph  0.00"  89%  57%  50°F  41°F  30.14"
Sun 08:00 AM  51.5°F  53°F  calm  2 mph  none  0.00"  93%  62%  49°F  40°F  30.14"

  1. Current weather data. No green row appears if the current weather data is also the high or low for the current day.
  2. High temperature for the current day.
  3. Low temperature for the current day.

The Moreno Valley, California weather pages are a service of WeatherCurrents. Moreno Valley is located in Southern California's Inland Empire, east of Riverside and north of Perris, along the State Route 60 freeway.
Copyright ©2020  WeatherCurrents. All rights reserved. - Submit questions and comments - Privacy Policy

This page automatically refreshes every 10 minutes.